CYBW weather

Calgary / Springbank Airport
Calgary, Alberta, Canada

Public forecast

Using degrees Celsius for public forecast. Weather courtesy of forecast.io.

Current aviation weather report (METAR) for Calgary / Springbank Airport

Retrieved 2020/03/29 22:00 UTC (18 minutes ago):

CYBW 292200Z AUTO 22010KT 9SM BKN230 08/M03 A2953 RMK TS/LTNG TEMPO UNAVBL SLP032 DENSITY ALT 4400FT

Aviation forecast (TAF) for Calgary / Springbank Airport

Retrieved 2020/03/29 18:00 UTC (4 hours ago):

TAF CYBW 291738Z 2918/3004 18012KT P6SM OVC230 BECMG 2919/2921 20015G25KT BECMG 3001/3003 20008KT RMK FCST BASED ON AUTO OBS NXT FCST BY 300000Z